Time;durP1;ratioP1;P1;durP2;ratioP2;P2;SDS_P1;SDS_P2;PMS_P1;PMS_P2;Temp;Humidity;BMP_temperature;BMP_pressure;BME280_temperature;BME280_humidity;BME280_pressure;Samples;Min_cycle;Max_cycle;Signal;HPM_P1;HPM_P2
2023/08/19 00:01:23;;;;;;;4.07;2.67;;;;;;;23.42;57.96;97810.81;5092801;28;20544;-74
2023/08/19 00:03:51;;;;;;;3.50;3.20;;;;;;;23.43;57.66;97811.63;5092227;28;20504;-75
2023/08/19 00:06:36;;;;;;;6.10;3.77;;;;;;;23.43;57.45;97801.41;5092093;28;20460;-74
2023/08/19 00:09:06;;;;;;;4.33;3.00;;;;;;;23.45;58.04;97810.22;5092703;28;20537;-74
2023/08/19 00:11:33;;;;;;;3.50;3.20;;;;;;;23.29;58.25;97814.25;5092520;28;20441;-75
2023/08/19 00:14:00;;;;;;;3.57;3.13;;;;;;;23.36;58.38;97823.03;5091971;28;20469;-75
2023/08/19 00:16:27;;;;;;;3.33;3.03;;;;;;;23.38;58.04;97809.75;5092571;28;20540;-75
2023/08/19 00:18:54;;;;;;;3.20;3.00;;;;;;;23.37;57.78;97813.63;5092266;28;20534;-75
2023/08/19 00:21:22;;;;;;;3.77;3.47;;;;;;;23.42;57.87;97805.28;5092376;28;20442;-75
2023/08/19 00:23:49;;;;;;;3.17;2.97;;;;;;;23.31;57.92;97809.28;5091906;28;20544;-74
2023/08/19 00:26:17;;;;;;;3.43;3.13;;;;;;;23.34;57.58;97814.22;5092038;28;20453;-75
2023/08/19 00:28:44;;;;;;;3.50;3.20;;;;;;;23.30;57.79;97807.63;5091893;28;20441;-75
2023/08/19 00:31:11;;;;;;;3.10;2.90;;;;;;;23.37;58.04;97810.06;5092099;28;20577;-75
2023/08/19 00:33:38;;;;;;;3.17;2.90;;;;;;;23.19;58.41;97808.81;5091971;28;20809;-75
2023/08/19 00:36:05;;;;;;;4.40;3.10;;;;;;;23.08;58.97;97810.00;5092150;28;20449;-75
2023/08/19 00:38:32;;;;;;;3.63;3.33;;;;;;;23.18;58.59;97817.38;5092166;28;20494;-75
2023/08/19 00:40:59;;;;;;;4.00;3.60;;;;;;;23.25;58.54;97807.66;5091620;28;20457;-74
2023/08/19 00:43:27;;;;;;;3.57;3.27;;;;;;;23.26;58.52;97806.53;5091568;28;20808;-74
2023/08/19 00:45:54;;;;;;;3.17;2.87;;;;;;;23.11;59.21;97812.19;5091747;28;20544;-75
2023/08/19 00:48:21;;;;;;;5.43;3.40;;;;;;;23.09;58.82;97811.66;5092052;28;20512;-74
2023/08/19 00:50:48;;;;;;;3.47;3.27;;;;;;;23.05;59.55;97808.66;5091964;28;20486;-74
2023/08/19 00:53:16;;;;;;;3.70;3.10;;;;;;;23.03;59.60;97808.13;5091600;28;20535;-75
2023/08/19 00:55:42;;;;;;;3.97;3.57;;;;;;;22.85;59.85;97816.25;5090821;28;20452;-74
2023/08/19 00:58:09;;;;;;;3.50;3.20;;;;;;;23.02;59.54;97812.00;5091479;28;20441;-75
2023/08/19 01:00:38;;;;;;;3.30;3.10;;;;;;;23.08;59.11;97826.56;5091578;28;20556;-75
2023/08/19 01:03:06;;;;;;;3.47;3.17;;;;;;;23.02;59.40;97824.97;5091036;28;20957;-74
2023/08/19 01:05:41;;;;;;;4.73;3.47;;;;;;;23.06;59.23;97813.09;5091263;28;20465;-74
2023/08/19 01:08:10;;;;;;;4.27;3.60;;;;;;;22.88;59.92;97815.69;5091446;28;20449;-75
2023/08/19 01:10:42;;;;;;;3.53;3.23;;;;;;;22.99;59.79;97823.63;5091231;28;20564;-74
2023/08/19 01:13:12;;;;;;;4.10;3.40;;;;;;;23.03;59.16;97818.34;5091732;28;20469;-74
2023/08/19 01:15:46;;;;;;;4.63;3.70;;;;;;;22.83;59.76;97807.44;5090832;28;20866;-75
2023/08/19 01:18:16;;;;;;;3.07;2.83;;;;;;;22.77;60.42;97799.16;5091109;28;20441;-75
2023/08/19 01:20:42;;;;;;;4.10;3.60;;;;;;;22.71;60.04;97800.34;5091499;28;20438;-74
2023/08/19 01:23:15;;;;;;;3.80;3.10;;;;;;;22.71;60.90;97791.22;5090463;28;20473;-74
2023/08/19 01:25:43;;;;;;;4.00;3.60;;;;;;;22.62;60.60;97796.53;5091230;28;20540;-75
2023/08/19 01:28:10;;;;;;;5.37;3.70;;;;;;;22.64;61.08;97799.00;5091370;28;20441;-76
2023/08/19 01:30:37;;;;;;;4.07;3.67;;;;;;;22.61;60.59;97794.88;5090755;28;20510;-75
2023/08/19 01:33:05;;;;;;;5.80;3.90;;;;;;;22.70;60.83;97793.16;5090160;28;20476;-74
2023/08/19 01:35:32;;;;;;;3.07;2.87;;;;;;;22.56;61.00;97786.63;5090831;28;20485;-74
2023/08/19 01:38:03;;;;;;;4.03;3.57;;;;;;;22.52;61.17;97791.06;5090733;28;20447;-75
2023/08/19 01:40:32;;;;;;;3.63;3.33;;;;;;;22.45;61.71;97790.53;5091099;28;20437;-75
2023/08/19 01:43:00;;;;;;;3.93;3.63;;;;;;;22.40;61.56;97799.69;5090806;28;20768;-75
2023/08/19 01:45:27;;;;;;;4.67;3.33;;;;;;;22.50;61.63;97798.78;5090647;28;20461;-74
2023/08/19 01:47:54;;;;;;;4.10;3.73;;;;;;;22.44;61.60;97797.16;5090246;28;20450;-74
2023/08/19 01:50:21;;;;;;;4.00;3.60;;;;;;;22.47;61.17;97804.88;5090533;28;20575;-73
2023/08/19 01:52:48;;;;;;;3.87;3.57;;;;;;;22.49;61.17;97813.69;5090633;28;20442;-74
2023/08/19 01:55:15;;;;;;;3.73;3.43;;;;;;;22.52;60.82;97812.31;5090195;28;20485;-74
2023/08/19 01:57:42;;;;;;;4.23;3.50;;;;;;;22.41;61.14;97808.81;5090525;28;20642;-74
2023/08/19 02:00:11;;;;;;;4.60;3.50;;;;;;;22.41;60.97;97811.56;5090617;28;20485;-74
2023/08/19 02:02:38;;;;;;;3.33;3.13;;;;;;;22.51;60.75;97811.47;5090138;28;20532;-74
2023/08/19 02:05:06;;;;;;;3.70;3.50;;;;;;;22.47;61.19;97810.41;5089782;28;20977;-75
2023/08/19 02:07:32;;;;;;;3.77;3.40;;;;;;;22.54;61.07;97805.41;5090149;28;20937;-74
2023/08/19 02:09:59;;;;;;;5.80;3.50;;;;;;;22.54;61.12;97805.41;5090163;28;20486;-74
2023/08/19 02:12:26;;;;;;;3.50;3.20;;;;;;;22.52;61.04;97810.38;5090245;28;20961;-74
2023/08/19 02:14:53;;;;;;;4.93;3.60;;;;;;;22.37;61.66;97808.53;5089415;28;20481;-74
2023/08/19 02:17:21;;;;;;;3.73;3.40;;;;;;;22.44;61.61;97813.72;5089332;28;20492;-74
2023/08/19 02:19:48;;;;;;;6.27;3.70;;;;;;;22.33;61.95;97809.38;5089579;28;20494;-74
2023/08/19 02:22:17;;;;;;;4.00;3.70;;;;;;;22.28;62.30;97803.91;5090147;28;20840;-74
2023/08/19 02:24:44;;;;;;;3.70;3.47;;;;;;;22.22;62.57;97807.78;5089861;28;20470;-75
2023/08/19 02:27:10;;;;;;;3.87;3.57;;;;;;;22.08;62.81;97808.41;5090108;28;20948;-74
2023/08/19 02:29:37;;;;;;;4.47;4.07;;;;;;;22.09;63.34;97815.53;5089761;28;20481;-74
2023/08/19 02:32:04;;;;;;;3.87;3.57;;;;;;;21.99;63.39;97821.06;5089986;28;20454;-75
2023/08/19 02:34:32;;;;;;;4.23;3.93;;;;;;;21.93;63.64;97811.16;5088917;28;20616;-74
2023/08/19 02:36:59;;;;;;;3.97;3.67;;;;;;;21.84;64.48;97810.09;5090192;28;20456;-75
2023/08/19 02:39:26;;;;;;;4.53;3.70;;;;;;;21.88;64.50;97807.59;5089799;28;20547;-74
2023/08/19 02:41:52;;;;;;;4.10;3.80;;;;;;;21.84;64.55;97806.50;5089515;28;20506;-74
2023/08/19 02:44:19;;;;;;;4.70;4.30;;;;;;;21.70;65.31;97807.13;5089240;28;20508;-75
2023/08/19 02:46:46;;;;;;;5.03;4.63;;;;;;;21.82;65.20;97804.03;5089746;28;20463;-74
2023/08/19 02:49:13;;;;;;;6.20;4.33;;;;;;;21.57;66.01;97798.59;5089828;28;20510;-74
2023/08/19 02:51:41;;;;;;;4.97;4.30;;;;;;;21.61;66.12;97803.28;5089584;28;20521;-74
2023/08/19 02:54:08;;;;;;;5.40;4.90;;;;;;;21.38;67.46;97795.63;5089263;28;21047;-74
2023/08/19 02:56:34;;;;;;;5.27;4.87;;;;;;;21.31;67.86;97803.34;5089583;28;20539;-74
2023/08/19 02:59:01;;;;;;;5.20;4.77;;;;;;;21.26;67.97;97797.81;5089605;28;21010;-73
2023/08/19 03:01:28;;;;;;;5.27;4.90;;;;;;;21.41;67.44;97812.41;5089490;28;20453;-74
2023/08/19 03:03:55;;;;;;;5.10;4.33;;;;;;;21.34;68.07;97809.13;5089401;28;20473;-74
2023/08/19 03:06:21;;;;;;;5.67;4.60;;;;;;;21.33;67.91;97809.38;5089584;28;20814;-74
2023/08/19 03:08:50;;;;;;;5.00;4.60;;;;;;;21.34;68.13;97814.63;5089704;28;20464;-74
2023/08/19 03:11:17;;;;;;;5.97;5.00;;;;;;;21.28;68.48;97817.66;5089484;28;20866;-75
2023/08/19 03:13:43;;;;;;;6.27;5.47;;;;;;;21.23;68.76;97817.66;5088836;28;20465;-74
2023/08/19 03:16:10;;;;;;;7.77;5.30;;;;;;;21.14;69.40;97804.41;5089521;28;20937;-74
2023/08/19 03:18:37;;;;;;;5.53;5.03;;;;;;;21.04;69.74;97803.59;5089712;28;20535;-74
2023/08/19 03:21:04;;;;;;;7.23;6.07;;;;;;;20.95;70.25;97811.56;5089712;28;20451;-74
2023/08/19 03:23:31;;;;;;;6.50;5.90;;;;;;;20.87;70.80;97808.53;5089283;28;20479;-74
2023/08/19 03:25:59;;;;;;;5.53;5.03;;;;;;;20.93;70.48;97818.44;5089181;28;20598;-74
2023/08/19 03:28:26;;;;;;;6.53;6.03;;;;;;;20.88;70.53;97810.19;5088860;28;20441;-74
2023/08/19 03:30:53;;;;;;;5.73;5.33;;;;;;;20.85;70.96;97813.47;5089176;28;21012;-74
2023/08/19 03:33:20;;;;;;;6.30;5.70;;;;;;;20.78;71.57;97814.59;5088906;28;21010;-74
2023/08/19 03:35:46;;;;;;;5.87;5.47;;;;;;;20.70;71.83;97814.31;5089638;28;20974;-74
2023/08/19 03:38:14;;;;;;;6.20;5.70;;;;;;;20.72;71.58;97801.94;5089205;28;20981;-74
2023/08/19 03:40:41;;;;;;;6.33;5.60;;;;;;;20.77;71.89;97810.19;5089335;28;20437;-74
2023/08/19 03:43:09;;;;;;;7.07;5.70;;;;;;;20.74;72.26;97809.91;5088938;28;20504;-75
2023/08/19 03:45:37;;;;;;;7.10;6.00;;;;;;;20.83;71.74;97805.50;5090386;28;20455;-75
2023/08/19 03:48:04;;;;;;;6.00;5.40;;;;;;;20.80;72.01;97812.38;5092955;28;20506;-75
2023/08/19 03:50:31;;;;;;;7.67;6.07;;;;;;;20.72;72.01;97806.59;5093209;28;20483;-74
2023/08/19 03:52:58;;;;;;;7.47;6.00;;;;;;;20.67;72.34;97814.84;5092808;28;20526;-75
2023/08/19 03:55:24;;;;;;;6.40;5.90;;;;;;;20.61;72.79;97808.50;5092391;28;20785;-75
2023/08/19 03:57:52;;;;;;;7.60;7.00;;;;;;;20.52;73.16;97812.06;5092881;28;20477;-75
2023/08/19 04:00:20;;;;;;;8.10;6.90;;;;;;;20.47;73.94;97815.63;5092963;28;20452;-75
2023/08/19 04:02:47;;;;;;;6.37;5.77;;;;;;;20.36;74.14;97808.44;5092338;28;20859;-75
2023/08/19 04:05:14;;;;;;;7.20;6.50;;;;;;;20.33;74.29;97812.53;5092502;28;20548;-74
2023/08/19 04:07:41;;;;;;;6.80;6.20;;;;;;;20.28;74.88;97803.44;5092443;28;20551;-75
2023/08/19 04:10:08;;;;;;;7.20;6.50;;;;;;;20.32;74.65;97812.81;5092134;28;20531;-75
2023/08/19 04:12:35;;;;;;;6.83;6.23;;;;;;;20.31;74.75;97811.97;5092403;28;20451;-75
2023/08/19 04:15:03;;;;;;;7.27;6.63;;;;;;;20.31;74.76;97811.97;5092192;28;20802;-75
2023/08/19 04:17:33;;;;;;;7.00;6.40;;;;;;;20.33;74.64;97819.97;5092016;28;20947;-74
2023/08/19 04:19:59;;;;;;;7.60;6.97;;;;;;;20.42;74.53;97821.13;5092061;28;20909;-74
2023/08/19 04:22:27;;;;;;;6.60;6.10;;;;;;;20.38;74.43;97822.75;5091625;28;20480;-75
2023/08/19 04:24:54;;;;;;;6.80;6.30;;;;;;;20.43;74.38;97818.09;5091749;28;20481;-74
2023/08/19 04:27:21;;;;;;;7.43;6.83;;;;;;;20.51;74.11;97832.41;5091995;28;20457;-74
2023/08/19 04:29:48;;;;;;;7.53;6.93;;;;;;;20.58;74.14;97832.97;5091776;28;20494;-75
2023/08/19 04:32:15;;;;;;;7.40;6.77;;;;;;;20.43;74.53;97839.28;5091682;28;20489;-75
2023/08/19 04:34:43;;;;;;;7.00;6.50;;;;;;;20.38;75.25;97837.34;5091266;28;20459;-74
2023/08/19 04:37:10;;;;;;;7.03;6.43;;;;;;;20.45;75.17;97845.31;5091039;28;20535;-74
2023/08/19 04:39:37;;;;;;;7.43;6.40;;;;;;;20.49;74.80;97840.09;5091411;28;20452;-74
2023/08/19 04:42:04;;;;;;;7.90;7.30;;;;;;;20.54;74.64;97843.69;5091233;28;20824;-74
2023/08/19 04:44:31;;;;;;;7.53;6.93;;;;;;;20.55;74.61;97839.84;5091038;28;20456;-73
2023/08/19 04:46:58;;;;;;;7.30;6.70;;;;;;;20.47;74.83;97837.59;5091360;28;20499;-75
2023/08/19 04:49:24;;;;;;;7.70;7.10;;;;;;;20.50;74.91;97842.56;5091121;28;20548;-74
2023/08/19 04:51:53;;;;;;;8.70;6.90;;;;;;;20.52;75.17;97840.38;5091546;28;20761;-74
2023/08/19 04:54:19;;;;;;;8.10;7.30;;;;;;;20.39;75.93;97846.41;5090867;28;20979;-75
2023/08/19 04:56:46;;;;;;;7.50;6.90;;;;;;;20.32;76.30;97843.03;5090250;28;20510;-74
2023/08/19 04:59:13;;;;;;;8.27;7.10;;;;;;;20.26;76.69;97842.19;5091053;28;20925;-74
2023/08/19 05:01:40;;;;;;;7.47;6.77;;;;;;;20.20;76.69;97843.25;5091187;28;20977;-74
2023/08/19 05:04:07;;;;;;;7.50;6.73;;;;;;;20.11;76.96;97834.72;5090637;28;20552;-74
2023/08/19 05:06:33;;;;;;;6.90;6.40;;;;;;;20.26;76.37;97842.19;5091191;28;20501;-75
2023/08/19 05:09:02;;;;;;;7.13;6.17;;;;;;;20.29;76.29;97835.34;5091151;28;20517;-74
2023/08/19 05:11:29;;;;;;;6.10;5.60;;;;;;;20.24;76.16;97824.31;5090969;28;20503;-74
2023/08/19 05:13:56;;;;;;;6.20;5.70;;;;;;;20.29;76.02;97835.34;5090406;28;20479;-74
2023/08/19 05:16:23;;;;;;;6.77;6.27;;;;;;;20.34;76.33;97840.84;5090871;28;20537;-75
2023/08/19 05:18:51;;;;;;;6.80;5.67;;;;;;;20.22;76.25;97841.06;5090738;28;20566;-74
2023/08/19 05:21:18;;;;;;;6.80;6.20;;;;;;;20.27;76.37;97843.03;5090841;28;20501;-75
2023/08/19 05:23:45;;;;;;;6.60;6.10;;;;;;;20.18;76.55;97847.38;5090696;28;20472;-75
2023/08/19 05:26:13;;;;;;;6.30;5.80;;;;;;;20.17;77.06;97841.06;5090764;28;20449;-74
2023/08/19 05:28:40;;;;;;;6.00;5.50;;;;;;;20.28;76.60;97847.44;5090515;28;20446;-74
2023/08/19 05:31:06;;;;;;;6.87;6.27;;;;;;;20.11;76.83;97845.72;5090845;28;20520;-74
2023/08/19 05:33:33;;;;;;;6.17;5.67;;;;;;;20.20;76.77;97848.75;5090087;28;20552;-74
2023/08/19 05:36:00;;;;;;;7.13;6.53;;;;;;;20.27;76.37;97856.75;5090482;28;20542;-74
2023/08/19 05:38:26;;;;;;;5.70;5.30;;;;;;;20.51;75.43;97852.47;5090750;28;20538;-74
2023/08/19 05:40:53;;;;;;;5.73;5.17;;;;;;;20.60;75.42;97852.78;5090266;28;20459;-74
2023/08/19 05:43:21;;;;;;;5.60;5.10;;;;;;;20.56;75.21;97852.50;5090122;28;20468;-74
2023/08/19 05:45:48;;;;;;;6.20;5.50;;;;;;;20.84;74.09;97850.34;5089747;28;20468;-74
2023/08/19 05:48:15;;;;;;;6.47;5.47;;;;;;;20.79;73.64;97851.19;5090199;28;21063;-75
2023/08/19 05:50:42;;;;;;;5.80;5.30;;;;;;;20.94;73.25;97853.13;5090303;28;20479;-74
2023/08/19 05:53:08;;;;;;;6.17;5.10;;;;;;;21.13;72.66;97862.47;5090264;28;20461;-75
2023/08/19 05:55:35;;;;;;;5.10;4.70;;;;;;;21.37;71.56;97866.38;5089416;28;20499;-74
2023/08/19 05:58:02;;;;;;;5.60;4.80;;;;;;;21.41;71.46;97873.00;5090535;28;20454;-75
2023/08/19 06:00:30;;;;;;;5.10;4.70;;;;;;;21.56;70.64;97879.59;5089996;28;21003;-74
2023/08/19 06:02:57;;;;;;;7.80;4.80;;;;;;;21.83;69.41;97891.09;5089936;28;20457;-74
2023/08/19 06:05:24;;;;;;;4.97;4.47;;;;;;;21.88;69.38;97888.34;5089994;28;20454;-74
2023/08/19 06:07:51;;;;;;;5.60;5.20;;;;;;;21.81;69.25;97890.56;5090148;28;20481;-74
2023/08/19 06:10:18;;;;;;;6.20;4.67;;;;;;;21.85;69.69;97886.16;5089999;28;20851;-74
2023/08/19 06:12:45;;;;;;;5.20;4.80;;;;;;;22.07;69.81;97889.47;5089754;28;20575;-74
2023/08/19 06:15:12;;;;;;;5.10;4.70;;;;;;;22.23;68.68;97879.19;5089359;28;20541;-74
2023/08/19 06:17:40;;;;;;;5.67;5.23;;;;;;;22.30;68.23;97884.41;5090034;28;20449;-74
2023/08/19 06:20:08;;;;;;;4.50;4.10;;;;;;;22.46;66.46;97886.81;5089722;28;20536;-74
2023/08/19 06:22:35;;;;;;;6.57;4.50;;;;;;;22.58;66.88;97893.94;5089436;28;20492;-74
2023/08/19 06:25:02;;;;;;;4.80;4.40;;;;;;;22.75;66.03;97903.50;5089445;28;20979;-74
2023/08/19 06:27:29;;;;;;;4.27;3.97;;;;;;;23.06;65.34;97898.66;5089578;28;20457;-74
2023/08/19 06:29:56;;;;;;;4.87;4.43;;;;;;;23.15;63.91;97898.88;5089909;28;20441;-75
2023/08/19 06:32:23;;;;;;;5.97;4.30;;;;;;;23.24;63.84;97902.69;5089649;28;20507;-74
2023/08/19 06:34:52;;;;;;;4.70;4.30;;;;;;;23.42;63.36;97903.91;5089202;28;20548;-74
2023/08/19 06:37:20;;;;;;;4.07;3.77;;;;;;;23.75;62.58;97905.03;5089137;28;20983;-74
2023/08/19 06:39:50;;;;;;;4.20;3.90;;;;;;;24.18;60.55;97905.16;5089421;28;20805;-74
2023/08/19 06:42:19;;;;;;;4.27;3.87;;;;;;;24.73;58.73;97911.97;5089844;28;20864;-75
2023/08/19 06:44:50;;;;;;;5.20;4.20;;;;;;;25.09;57.44;97906.81;5089001;28;20960;-75
2023/08/19 06:47:22;;;;;;;4.70;4.30;;;;;;;25.84;55.04;97917.81;5089847;28;20449;-74
2023/08/19 06:49:49;;;;;;;4.50;4.10;;;;;;;26.15;52.92;97914.50;5089472;28;20522;-74
2023/08/19 06:52:18;;;;;;;4.40;4.00;;;;;;;26.34;52.64;97915.25;5089160;28;20888;-74
2023/08/19 06:54:45;;;;;;;4.10;3.70;;;;;;;26.71;51.77;97923.38;5088274;28;20523;-74
2023/08/19 06:57:18;;;;;;;4.70;4.30;;;;;;;26.71;51.50;97906.72;5089392;28;20816;-74
2023/08/19 06:59:48;;;;;;;3.87;3.60;;;;;;;26.96;51.57;97930.41;5089011;28;20437;-75
2023/08/19 07:02:16;;;;;;;4.60;3.80;;;;;;;27.33;51.17;97923.69;5089547;28;20452;-74
2023/08/19 07:04:45;;;;;;;4.00;3.70;;;;;;;27.72;49.63;97925.00;5088950;28;20503;-75
2023/08/19 07:07:12;;;;;;;4.10;3.80;;;;;;;27.98;49.83;97926.00;5089121;28;20513;-75
2023/08/19 07:09:41;;;;;;;4.33;3.93;;;;;;;28.20;48.78;97921.53;5088779;28;20536;-73
2023/08/19 07:12:09;;;;;;;4.30;3.90;;;;;;;27.52;50.19;97931.88;5088805;28;20487;-73
2023/08/19 07:14:38;;;;;;;4.20;3.70;;;;;;;27.65;49.86;97935.75;5088504;28;20486;-75
2023/08/19 07:17:06;;;;;;;4.60;3.80;;;;;;;27.47;49.95;97933.94;5089207;28;20438;-74
2023/08/19 07:19:37;;;;;;;5.10;4.70;;;;;;;27.61;50.61;97929.19;5089034;28;20548;-75
2023/08/19 07:22:04;;;;;;;4.30;3.90;;;;;;;27.91;49.43;97934.00;5092676;28;20449;-75
2023/08/19 07:24:32;;;;;;;5.07;4.57;;;;;;;28.13;48.52;97933.13;5092984;28;20520;-74
2023/08/19 07:27:02;;;;;;;4.80;3.67;;;;;;;28.34;48.66;97930.63;5092841;28;20976;-74
2023/08/19 07:29:29;;;;;;;4.07;3.67;;;;;;;28.28;48.74;97940.25;5093329;28;20455;-74
2023/08/19 07:31:57;;;;;;;5.20;3.70;;;;;;;28.66;48.57;97938.63;5092857;28;20579;-75
2023/08/19 07:34:24;;;;;;;6.13;3.80;;;;;;;28.77;47.04;97939.16;5092501;28;20468;-75
2023/08/19 07:36:52;;;;;;;4.90;3.90;;;;;;;28.58;47.32;97945.00;5093038;28;20514;-75
2023/08/19 07:39:19;;;;;;;4.40;3.60;;;;;;;29.07;47.24;97938.28;5093064;28;20531;-75
2023/08/19 07:41:45;;;;;;;4.50;4.10;;;;;;;29.55;46.02;97936.56;5092366;28;20455;-75
2023/08/19 07:44:14;;;;;;;3.93;3.63;;;;;;;29.91;44.40;97938.97;5092064;28;20461;-75
2023/08/19 07:46:40;;;;;;;3.33;3.10;;;;;;;30.36;43.60;97939.38;5092310;28;20453;-75
2023/08/19 07:49:07;;;;;;;3.50;3.20;;;;;;;30.51;42.64;97947.22;5092915;28;20477;-75
2023/08/19 07:51:34;;;;;;;4.47;3.83;;;;;;;29.77;44.53;97944.75;5092486;28;20512;-74
2023/08/19 07:54:01;;;;;;;4.17;3.10;;;;;;;30.16;44.44;97949.31;5091635;28;21035;-75
2023/08/19 07:56:27;;;;;;;4.47;4.03;;;;;;;30.67;43.40;97950.31;5092334;28;20445;-75
2023/08/19 07:58:55;;;;;;;4.30;3.57;;;;;;;30.89;41.94;97946.41;5092283;28;20465;-74
2023/08/19 08:01:23;;;;;;;4.10;3.47;;;;;;;30.56;43.16;97944.25;5092424;28;20561;-75
2023/08/19 08:03:49;;;;;;;3.80;3.50;;;;;;;30.34;44.71;97945.31;5091794;28;20824;-75
2023/08/19 08:06:16;;;;;;;3.37;3.07;;;;;;;30.48;43.59;97941.50;5092385;28;20445;-75
2023/08/19 08:08:43;;;;;;;3.73;3.43;;;;;;;31.17;42.05;97947.59;5091946;28;20774;-75
2023/08/19 08:11:10;;;;;;;4.57;3.50;;;;;;;31.68;40.86;97954.81;5091637;28;20873;-75
2023/08/19 08:13:37;;;;;;;3.77;3.47;;;;;;;31.32;42.21;97955.38;5091645;28;20545;-75
2023/08/19 08:16:03;;;;;;;5.20;3.77;;;;;;;31.56;41.12;97960.28;5091758;28;20954;-75
2023/08/19 08:18:31;;;;;;;4.00;3.63;;;;;;;31.70;41.00;97954.47;5092080;28;20534;-75
2023/08/19 08:20:58;;;;;;;4.07;3.60;;;;;;;31.36;41.38;97955.53;5091818;28;21173;-75
2023/08/19 08:23:25;;;;;;;4.87;3.70;;;;;;;31.62;40.55;97946.91;5091718;28;20497;-75
2023/08/19 08:25:52;;;;;;;3.87;3.57;;;;;;;31.98;40.74;97952.72;5092044;28;20441;-75
2023/08/19 08:28:19;;;;;;;4.90;4.50;;;;;;;32.60;38.04;97965.72;5091532;28;20528;-74
2023/08/19 08:30:45;;;;;;;4.33;3.73;;;;;;;32.46;38.78;97959.66;5091937;28;20453;-74
2023/08/19 08:33:12;;;;;;;4.30;3.90;;;;;;;32.75;37.64;97955.03;5090400;28;20516;-75
2023/08/19 08:35:40;;;;;;;9.07;3.80;;;;;;;33.22;37.21;97949.75;5091482;28;20532;-75
2023/08/19 08:38:07;;;;;;;5.33;3.40;;;;;;;33.77;36.19;97948.25;5091541;28;20499;-75
2023/08/19 08:40:33;;;;;;;4.00;3.47;;;;;;;33.66;34.74;97945.94;5091492;28;20567;-74
2023/08/19 08:43:03;;;;;;;3.60;3.30;;;;;;;33.51;35.44;97937.44;5091402;28;20465;-75
2023/08/19 08:45:31;;;;;;;6.50;3.77;;;;;;;33.65;34.91;97937.88;5091482;28;20444;-75
2023/08/19 08:47:59;;;;;;;3.93;3.50;;;;;;;33.87;35.19;97947.75;5091554;28;20445;-74
2023/08/19 08:50:26;;;;;;;4.60;3.70;;;;;;;33.88;32.58;97933.34;5091552;28;20549;-75
2023/08/19 08:52:55;;;;;;;6.13;3.80;;;;;;;33.92;33.64;97942.72;5091058;28;20495;-75
2023/08/19 08:55:22;;;;;;;5.40;4.03;;;;;;;33.95;32.69;97946.78;5090955;28;20480;-74
2023/08/19 08:57:49;;;;;;;4.67;3.90;;;;;;;34.27;33.64;97944.88;5091226;28;20945;-75
2023/08/19 09:00:16;;;;;;;3.93;3.63;;;;;;;34.46;32.18;97950.63;5091386;28;20445;-75
2023/08/19 09:02:45;;;;;;;7.40;3.80;;;;;;;35.15;30.61;97940.72;5091319;28;20540;-75
2023/08/19 09:05:12;;;;;;;4.23;3.83;;;;;;;35.47;31.83;97943.50;5091014;28;20438;-75
2023/08/19 09:07:40;;;;;;;3.80;3.50;;;;;;;35.51;31.10;97952.84;5091070;28;20937;-75
2023/08/19 09:10:12;;;;;;;4.13;3.70;;;;;;;35.07;30.87;97947.41;5090521;28;20441;-75
2023/08/19 09:12:41;;;;;;;4.53;3.40;;;;;;;35.32;29.19;97950.81;5090857;28;20524;-75
2023/08/19 09:15:09;;;;;;;5.57;4.03;;;;;;;35.63;28.88;97958.34;5091018;28;20445;-75
2023/08/19 09:17:36;;;;;;;4.17;3.60;;;;;;;35.43;29.79;97953.84;5090714;28;20445;-75
2023/08/19 09:20:04;;;;;;;5.50;3.77;;;;;;;35.37;30.12;97956.16;5090833;28;20532;-75
2023/08/19 09:22:31;;;;;;;4.97;3.70;;;;;;;35.50;30.07;97959.66;5090556;28;20461;-75
2023/08/19 09:24:57;;;;;;;3.93;3.53;;;;;;;36.15;29.38;97960.66;5090397;28;20833;-75
2023/08/19 09:27:27;;;;;;;4.90;3.90;;;;;;;36.83;28.17;97959.97;5090761;28;20456;-75
2023/08/19 09:29:54;;;;;;;6.00;3.50;;;;;;;37.19;28.12;97954.91;5090487;28;20438;-76
2023/08/19 09:32:28;;;;;;;4.07;3.70;;;;;;;37.01;27.76;97957.44;5090058;28;20572;-76
2023/08/19 09:35:03;;;;;;;4.20;3.80;;;;;;;36.82;27.54;97955.50;5090085;28;20448;-75
2023/08/19 09:37:30;;;;;;;3.63;3.33;;;;;;;36.14;28.87;97955.41;5090837;28;20532;-76
2023/08/19 09:39:58;;;;;;;4.33;3.93;;;;;;;35.93;28.96;97945.34;5090726;28;20433;-75
2023/08/19 09:42:27;;;;;;;4.30;3.67;;;;;;;36.93;28.21;97958.50;5090640;28;20472;-75
2023/08/19 09:44:54;;;;;;;5.67;3.97;;;;;;;37.50;27.34;97954.56;5089483;28;20785;-75
2023/08/19 09:47:20;;;;;;;4.20;3.80;;;;;;;36.51;28.70;97947.28;5090174;28;20448;-76
2023/08/19 09:49:52;;;;;;;5.80;4.20;;;;;;;36.70;28.03;97954.88;5090040;28;20441;-75
2023/08/19 09:52:19;;;;;;;4.20;3.63;;;;;;;36.67;28.44;97957.25;5090558;28;20485;-75
2023/08/19 09:54:51;;;;;;;5.63;4.10;;;;;;;37.09;27.92;97961.19;5089608;28;20868;-75
2023/08/19 09:57:17;;;;;;;4.80;4.30;;;;;;;37.92;26.59;97957.19;5090138;28;20438;-76
2023/08/19 09:59:46;;;;;;;5.50;3.73;;;;;;;38.70;25.79;97951.59;5090112;28;20517;-76
2023/08/19 10:02:14;;;;;;;4.73;3.80;;;;;;;39.09;24.66;97962.50;5089731;28;21404;-75
2023/08/19 10:04:41;;;;;;;4.13;3.73;;;;;;;38.58;25.48;97961.22;5089946;28;20452;-76
2023/08/19 10:07:10;;;;;;;4.43;3.57;;;;;;;37.81;26.80;97964.72;5089947;28;20460;-75
2023/08/19 10:09:38;;;;;;;3.60;3.30;;;;;;;38.16;26.51;97957.91;5090136;28;20536;-75
2023/08/19 10:12:06;;;;;;;5.23;3.60;;;;;;;38.06;25.68;97959.38;5089799;28;21302;-76
2023/08/19 10:14:33;;;;;;;4.17;3.83;;;;;;;38.24;25.57;97953.97;5089411;28;20461;-75
2023/08/19 10:17:04;;;;;;;4.60;3.87;;;;;;;38.77;25.55;97959.34;5089755;28;20452;-76
2023/08/19 10:19:32;;;;;;;3.93;3.50;;;;;;;38.83;24.28;97957.81;5089776;28;20437;-76
2023/08/19 10:22:00;;;;;;;3.70;3.40;;;;;;;38.25;26.03;97955.59;5089810;28;20580;-76
2023/08/19 10:24:27;;;;;;;3.93;3.53;;;;;;;38.51;25.28;97949.78;5089358;28;20449;-76
2023/08/19 10:26:54;;;;;;;4.47;4.03;;;;;;;38.52;24.75;97950.63;5089361;28;20998;-76
2023/08/19 10:29:21;;;;;;;4.30;3.90;;;;;;;38.36;25.40;97950.84;5089799;28;20453;-76
2023/08/19 10:31:48;;;;;;;3.70;3.40;;;;;;;38.51;24.85;97963.13;5089651;28;20512;-76
2023/08/19 10:34:26;;;;;;;5.50;3.80;;;;;;;37.55;25.93;97956.25;5089322;28;20484;-76
2023/08/19 10:37:06;;;;;;;4.37;3.77;;;;;;;38.36;25.21;97952.84;5089414;28;20473;-75
2023/08/19 10:39:33;;;;;;;5.07;3.80;;;;;;;39.10;24.31;97950.78;5089529;28;20453;-76
2023/08/19 10:42:00;;;;;;;3.97;3.57;;;;;;;39.14;24.06;97954.44;5089762;28;20460;-75
2023/08/19 10:44:31;;;;;;;6.37;3.77;;;;;;;38.38;24.77;97944.78;5089475;28;20470;-76
2023/08/19 10:47:08;;;;;;;4.10;3.80;;;;;;;39.34;24.55;97949.31;5089660;28;20453;-75
2023/08/19 10:49:36;;;;;;;4.63;3.80;;;;;;;40.04;22.37;97950.13;5089477;28;20502;-76
2023/08/19 10:52:05;;;;;;;3.40;3.10;;;;;;;39.90;23.05;97943.22;5088690;28;20999;-76
2023/08/19 10:54:35;;;;;;;3.77;3.37;;;;;;;39.26;22.97;97948.47;5088394;28;20448;-76
2023/08/19 10:57:12;;;;;;;4.20;3.80;;;;;;;39.00;23.92;97954.28;5088743;28;20445;-76
2023/08/19 10:59:40;;;;;;;3.87;3.47;;;;;;;39.37;23.01;97944.88;5089183;28;20449;-76
2023/08/19 11:02:08;;;;;;;4.00;3.60;;;;;;;39.20;23.42;97941.53;5089356;28;20469;-75
2023/08/19 11:04:39;;;;;;;4.23;3.90;;;;;;;39.29;23.63;97944.84;5089250;28;20449;-75
2023/08/19 11:07:07;;;;;;;4.03;3.73;;;;;;;38.96;23.89;97950.66;5089329;28;20522;-76
2023/08/19 11:09:34;;;;;;;3.97;3.50;;;;;;;38.97;24.42;97941.75;5089262;28;20464;-76
2023/08/19 11:12:02;;;;;;;4.00;3.50;;;;;;;39.63;23.85;97944.69;5089073;28;20461;-76
2023/08/19 11:14:29;;;;;;;4.20;3.70;;;;;;;39.83;24.48;97943.13;5088737;28;20489;-76
2023/08/19 11:16:57;;;;;;;4.07;3.40;;;;;;;39.61;24.08;97941.41;5089209;28;20448;-76
2023/08/19 11:19:25;;;;;;;4.50;4.10;;;;;;;40.25;23.26;97938.88;5089036;28;21048;-76
2023/08/19 11:21:53;;;;;;;3.80;3.40;;;;;;;40.20;23.94;97940.06;5089031;28;20556;-75
2023/08/19 11:24:20;;;;;;;4.10;3.60;;;;;;;40.65;22.57;97945.44;5089004;28;20437;-76
2023/08/19 11:26:47;;;;;;;4.37;3.50;;;;;;;41.18;22.19;97937.78;5088987;28;20477;-76
2023/08/19 11:29:14;;;;;;;4.03;3.50;;;;;;;41.49;21.23;97938.13;5088880;28;21082;-76
2023/08/19 11:31:42;;;;;;;4.30;3.50;;;;;;;41.59;21.03;97952.34;5088759;28;20853;-76
2023/08/19 11:34:10;;;;;;;4.03;3.40;;;;;;;41.69;21.28;97950.69;5088656;28;20517;-76
2023/08/19 11:36:37;;;;;;;4.27;3.60;;;;;;;41.39;21.86;97941.81;5088841;28;20453;-75